Time;durP1;ratioP1;P1;durP2;ratioP2;P2;SDS_P1;SDS_P2;PMS_P1;PMS_P2;Temp;Humidity;BMP_temperature;BMP_pressure;BME280_temperature;BME280_humidity;BME280_pressure;Samples;Min_cycle;Max_cycle;Signal;HPM_P1;HPM_P2
2022/01/05 00:00:10;;;;;;;48.50;25.25;;;;;;;3.28;100.00;93852.28;5133680;27;20050;-71
2022/01/05 00:02:37;;;;;;;43.25;24.27;;;;;;;3.33;100.00;93850.94;5132815;27;20434;-72
2022/01/05 00:05:03;;;;;;;41.45;23.33;;;;;;;3.18;100.00;93853.53;5133431;27;20023;-72
2022/01/05 00:07:28;;;;;;;37.10;22.20;;;;;;;3.86;98.83;93850.31;5133414;27;20121;-72
2022/01/05 00:09:54;;;;;;;43.58;21.98;;;;;;;3.85;98.55;93834.66;5133455;27;20022;-72
2022/01/05 00:12:20;;;;;;;41.20;22.95;;;;;;;2.96;100.00;93834.97;5133638;27;20023;-71
2022/01/05 00:14:45;;;;;;;40.95;23.58;;;;;;;2.92;100.00;93847.81;5136497;27;20023;-72
2022/01/05 00:17:11;;;;;;;49.92;26.10;;;;;;;3.58;99.33;93852.41;5137162;27;20019;-73
2022/01/05 00:19:36;;;;;;;46.75;26.33;;;;;;;3.48;100.00;93842.94;5137633;27;20015;-73
2022/01/05 00:22:02;;;;;;;50.72;27.50;;;;;;;3.26;100.00;93851.25;5137019;27;20026;-71
2022/01/05 00:24:28;;;;;;;48.95;27.25;;;;;;;3.10;100.00;93855.78;5136976;27;20030;-71
2022/01/05 00:26:54;;;;;;;48.83;25.75;;;;;;;2.42;100.00;93830.06;5137240;27;20022;-73
2022/01/05 00:29:19;;;;;;;51.42;28.10;;;;;;;2.77;100.00;93845.78;5136906;27;20453;-71
2022/01/05 00:31:44;;;;;;;64.90;34.70;;;;;;;2.47;100.00;93840.19;5136861;27;20118;-71
2022/01/05 00:34:10;;;;;;;56.40;29.77;;;;;;;2.36;100.00;93842.59;5136944;27;20046;-71
2022/01/05 00:36:36;;;;;;;55.00;28.17;;;;;;;2.35;100.00;93851.81;5137025;27;20054;-71
2022/01/05 00:39:01;;;;;;;57.42;28.05;;;;;;;2.84;100.00;93850.81;5136709;27;20057;-71
2022/01/05 00:41:27;;;;;;;47.83;25.15;;;;;;;2.75;100.00;93850.84;5136684;27;20019;-71
2022/01/05 00:43:52;;;;;;;50.25;26.65;;;;;;;2.66;100.00;93865.00;5136628;27;20143;-71
2022/01/05 00:46:18;;;;;;;44.80;25.92;;;;;;;2.98;100.00;93857.47;5136674;27;20028;-71
2022/01/05 00:48:43;;;;;;;52.58;26.08;;;;;;;2.91;100.00;93857.78;5136527;27;20130;-71
2022/01/05 00:51:10;;;;;;;50.92;26.23;;;;;;;3.01;100.00;93855.81;5136744;27;20027;-71
2022/01/05 00:53:36;;;;;;;49.53;24.98;;;;;;;3.15;100.00;93855.19;5136386;27;20027;-72
2022/01/05 00:56:02;;;;;;;47.63;24.30;;;;;;;3.16;100.00;93840.56;5136757;27;20069;-72
2022/01/05 00:58:27;;;;;;;43.72;23.45;;;;;;;3.28;100.00;93846.19;5136484;27;20022;-72
2022/01/05 01:00:53;;;;;;;41.47;20.67;;;;;;;3.12;100.00;93834.63;5136888;27;20026;-72
2022/01/05 01:03:19;;;;;;;41.25;21.40;;;;;;;3.35;100.00;93827.06;5136227;27;20022;-72
2022/01/05 01:05:44;;;;;;;39.58;21.63;;;;;;;3.34;100.00;93833.63;5136211;27;20156;-72
2022/01/05 01:08:10;;;;;;;37.63;21.40;;;;;;;3.15;100.00;93823.00;5136224;27;20436;-71
2022/01/05 01:10:36;;;;;;;38.33;20.67;;;;;;;3.38;100.00;93818.09;5136123;27;20464;-72
2022/01/05 01:13:02;;;;;;;37.95;20.77;;;;;;;3.36;98.92;93821.22;5136001;27;20110;-72
2022/01/05 01:15:27;;;;;;;36.22;18.33;;;;;;;3.40;100.00;93817.66;5136051;27;20019;-71
2022/01/05 01:17:53;;;;;;;33.33;18.80;;;;;;;3.58;99.31;93822.91;5136233;27;20023;-72
2022/01/05 01:20:20;;;;;;;33.17;18.60;;;;;;;3.43;98.43;93822.84;5136174;27;20104;-72
2022/01/05 01:22:46;;;;;;;36.17;18.67;;;;;;;3.57;98.34;93823.34;5136127;27;20023;-72
2022/01/05 01:25:12;;;;;;;37.45;19.33;;;;;;;3.23;97.09;93818.03;5135327;27;20050;-72
2022/01/05 01:27:40;;;;;;;39.20;20.10;;;;;;;3.11;98.62;93833.16;5135804;27;20070;-71
2022/01/05 01:30:06;;;;;;;39.60;23.05;;;;;;;3.18;100.00;93819.41;5134750;27;20122;-72
2022/01/05 01:32:32;;;;;;;41.55;23.35;;;;;;;3.44;99.80;93821.66;5134644;27;20015;-72
2022/01/05 01:34:58;;;;;;;43.70;23.73;;;;;;;3.38;100.00;93824.22;5135665;27;20034;-72
2022/01/05 01:37:24;;;;;;;41.42;22.88;;;;;;;3.19;100.00;93823.56;5135821;27;20030;-71
2022/01/05 01:39:49;;;;;;;39.70;22.98;;;;;;;3.11;100.00;93818.97;5135630;27;20023;-71
2022/01/05 01:42:15;;;;;;;41.20;22.50;;;;;;;3.41;98.97;93809.16;5135461;27;20027;-71
2022/01/05 01:44:40;;;;;;;40.58;22.70;;;;;;;3.57;98.48;93815.31;5135442;27;20511;-71
2022/01/05 01:47:06;;;;;;;42.40;22.63;;;;;;;3.31;98.24;93808.47;5135510;27;20030;-71
2022/01/05 01:49:31;;;;;;;42.90;23.27;;;;;;;3.31;98.85;93807.72;5135387;27;20019;-72
2022/01/05 01:51:57;;;;;;;45.95;25.05;;;;;;;3.27;100.00;93801.78;5135570;27;20079;-72
2022/01/05 01:54:22;;;;;;;37.40;20.60;;;;;;;2.99;97.53;93801.91;5135220;27;20448;-72
2022/01/05 01:56:48;;;;;;;42.05;21.95;;;;;;;2.90;99.96;93801.97;5135222;27;20050;-72
2022/01/05 01:59:14;;;;;;;42.88;23.95;;;;;;;3.04;99.93;93796.69;5135513;27;20406;-72
2022/01/05 02:01:40;;;;;;;44.92;24.63;;;;;;;2.98;100.00;93811.16;5135137;27;20085;-72
2022/01/05 02:04:06;;;;;;;53.45;28.20;;;;;;;3.21;99.68;93817.75;5134620;27;20019;-72
2022/01/05 02:06:35;;;;;;;61.10;33.85;;;;;;;3.08;100.00;93806.50;5134935;27;20452;-71
2022/01/05 02:09:01;;;;;;;74.53;36.15;;;;;;;3.37;99.73;93812.00;5134979;27;20078;-71
2022/01/05 02:11:26;;;;;;;77.72;36.25;;;;;;;3.66;97.29;93807.19;5134957;27;20019;-71
2022/01/05 02:13:52;;;;;;;75.97;36.88;;;;;;;3.83;96.13;93805.59;5134761;27;20107;-71
2022/01/05 02:16:20;;;;;;;73.10;35.33;;;;;;;3.71;95.72;93795.84;5135286;27;20110;-71
2022/01/05 02:18:58;;;;;;;53.20;27.98;;;;;;;3.61;96.94;93791.72;5134827;27;20023;-72
2022/01/05 02:21:25;;;;;;;49.42;23.98;;;;;;;3.67;97.89;93792.59;5135349;27;20031;-72
2022/01/05 02:23:50;;;;;;;39.35;22.48;;;;;;;3.99;94.48;93796.34;5134746;27;20034;-72
2022/01/05 02:26:17;;;;;;;48.35;24.70;;;;;;;3.07;98.00;93800.38;5134710;27;20023;-72
2022/01/05 02:28:43;;;;;;;54.70;25.60;;;;;;;3.41;95.85;93793.06;5134591;27;20062;-71
2022/01/05 02:31:09;;;;;;;47.25;23.23;;;;;;;3.69;95.61;93793.59;5134844;27;20164;-71
2022/01/05 02:33:37;;;;;;;51.17;26.38;;;;;;;3.54;95.90;93790.88;5134469;27;20019;-71
2022/01/05 02:36:04;;;;;;;49.00;26.60;;;;;;;3.31;97.23;93792.38;5134332;27;20035;-72
2022/01/05 02:38:30;;;;;;;49.42;26.48;;;;;;;3.13;98.82;93776.38;5134124;27;20023;-71
2022/01/05 02:40:55;;;;;;;48.58;27.85;;;;;;;3.14;97.82;93788.59;5134923;27;20368;-71
2022/01/05 02:43:21;;;;;;;49.97;26.48;;;;;;;3.26;98.14;93778.81;5134400;27;20436;-72
2022/01/05 02:45:47;;;;;;;48.28;26.90;;;;;;;3.59;96.52;93786.81;5134635;27;20031;-71
2022/01/05 02:48:12;;;;;;;39.47;23.15;;;;;;;3.49;97.15;93786.16;5134276;27;20019;-72
2022/01/05 02:50:38;;;;;;;45.95;23.67;;;;;;;3.58;97.23;93781.91;5134304;27;20031;-71
2022/01/05 02:53:04;;;;;;;41.53;22.85;;;;;;;3.65;96.96;93771.56;5134726;27;20325;-71
2022/01/05 02:55:29;;;;;;;42.10;23.15;;;;;;;3.66;95.60;93772.31;5133166;27;20035;-72
2022/01/05 02:57:55;;;;;;;33.65;18.65;;;;;;;3.70;95.76;93772.88;5134134;27;20153;-72
2022/01/05 03:00:20;;;;;;;36.20;18.88;;;;;;;3.86;94.26;93759.03;5134141;27;20023;-72
2022/01/05 03:02:46;;;;;;;36.30;19.40;;;;;;;3.92;93.06;93771.81;5134110;27;20027;-72
2022/01/05 03:05:11;;;;;;;34.28;19.35;;;;;;;3.81;94.58;93773.06;5134126;27;20023;-72
2022/01/05 03:07:39;;;;;;;38.72;21.80;;;;;;;3.40;97.12;93775.47;5134073;27;20029;-71
2022/01/05 03:10:10;;;;;;;44.08;22.67;;;;;;;3.37;99.42;93774.44;5133991;27;20027;-71
2022/01/05 03:12:40;;;;;;;42.00;22.85;;;;;;;3.51;97.92;93767.63;5133956;27;20079;-72
2022/01/05 03:15:06;;;;;;;45.65;24.00;;;;;;;3.41;98.50;93760.88;5133962;27;20544;-72
2022/01/05 03:17:32;;;;;;;35.92;21.05;;;;;;;3.55;97.07;93768.19;5133905;27;20034;-72
2022/01/05 03:19:57;;;;;;;35.88;18.60;;;;;;;3.38;96.35;93775.94;5134131;27;20019;-72
2022/01/05 03:22:23;;;;;;;33.78;18.23;;;;;;;3.34;96.51;93769.25;5134097;27;20019;-71
2022/01/05 03:24:48;;;;;;;37.65;20.20;;;;;;;3.32;98.43;93772.38;5134398;27;20031;-72
2022/01/05 03:27:14;;;;;;;35.50;18.60;;;;;;;3.38;98.13;93775.16;5134008;27;20349;-72
2022/01/05 03:29:39;;;;;;;29.55;18.45;;;;;;;3.52;96.79;93769.13;5133860;27;20030;-71
2022/01/05 03:32:05;;;;;;;32.55;17.50;;;;;;;3.05;98.68;93765.22;5134068;27;20034;-72
2022/01/05 03:34:32;;;;;;;32.20;18.67;;;;;;;3.28;97.74;93771.81;5133728;27;20195;-72
2022/01/05 03:36:59;;;;;;;33.63;17.60;;;;;;;3.11;98.34;93766.09;5133990;27;20019;-71
2022/01/05 03:39:26;;;;;;;34.15;17.90;;;;;;;3.10;99.72;93761.22;5133693;27;20033;-71
2022/01/05 03:41:51;;;;;;;35.67;20.08;;;;;;;3.27;98.75;93764.94;5133977;27;20080;-71
2022/01/05 03:44:17;;;;;;;40.08;19.75;;;;;;;3.25;99.59;93758.59;5133667;28;20015;-71
2022/01/05 03:46:42;;;;;;;39.83;19.15;;;;;;;3.27;99.90;93764.22;5133895;27;20359;-71
2022/01/05 03:49:08;;;;;;;33.10;18.23;;;;;;;3.31;99.27;93759.44;5136034;27;20019;-71
2022/01/05 03:51:33;;;;;;;30.83;16.98;;;;;;;3.66;97.32;93761.56;5137901;27;20416;-72
2022/01/05 03:53:58;;;;;;;32.28;16.55;;;;;;;3.44;97.84;93757.25;5137535;27;20468;-72
2022/01/05 03:56:24;;;;;;;25.98;14.50;;;;;;;3.44;97.27;93762.63;5137421;27;20058;-72
2022/01/05 03:58:50;;;;;;;29.90;14.93;;;;;;;3.09;98.64;93747.03;5136556;27;20464;-74
2022/01/05 04:01:15;;;;;;;27.67;15.02;;;;;;;2.91;100.00;93749.84;5137426;27;20019;-72
2022/01/05 04:03:41;;;;;;;26.15;14.88;;;;;;;3.13;100.00;93758.34;5136362;27;20019;-72
2022/01/05 04:06:06;;;;;;;27.58;15.18;;;;;;;3.12;100.00;93748.81;5137391;27;20050;-71
2022/01/05 04:08:32;;;;;;;29.20;14.80;;;;;;;2.96;98.95;93751.88;5137285;27;20030;-72
2022/01/05 04:10:58;;;;;;;27.80;15.75;;;;;;;3.00;98.85;93744.41;5137247;27;20023;-72
2022/01/05 04:13:23;;;;;;;27.25;14.95;;;;;;;2.82;100.00;93740.66;5137117;27;20464;-71
2022/01/05 04:15:49;;;;;;;29.75;14.55;;;;;;;2.39;100.00;93744.50;5137173;27;20031;-72
2022/01/05 04:18:14;;;;;;;27.38;15.25;;;;;;;2.66;100.00;93749.06;5137224;27;20019;-72
2022/01/05 04:20:40;;;;;;;30.60;16.02;;;;;;;2.61;100.00;93738.94;5137115;27;20023;-72
2022/01/05 04:23:06;;;;;;;30.00;16.38;;;;;;;2.80;100.00;93734.25;5137352;27;20022;-72
2022/01/05 04:25:33;;;;;;;30.90;15.25;;;;;;;2.87;99.91;93745.38;5137046;27;20482;-72
2022/01/05 04:27:59;;;;;;;24.77;14.55;;;;;;;2.97;100.00;93731.91;5136281;27;20504;-72
2022/01/05 04:30:24;;;;;;;24.20;15.15;;;;;;;2.95;100.00;93731.66;5136981;27;20027;-72
2022/01/05 04:32:50;;;;;;;27.55;15.10;;;;;;;2.92;99.73;93730.63;5136804;27;20075;-72
2022/01/05 04:35:15;;;;;;;29.27;14.88;;;;;;;2.89;98.42;93736.88;5137424;27;20132;-71
2022/01/05 04:37:41;;;;;;;26.85;15.77;;;;;;;2.63;100.00;93741.91;5137107;27;20064;-72
2022/01/05 04:40:11;;;;;;;27.65;15.52;;;;;;;2.67;100.00;93743.25;5136743;27;20531;-72
2022/01/05 04:42:37;;;;;;;28.88;15.85;;;;;;;2.59;100.00;93746.69;5136869;27;20030;-72
2022/01/05 04:45:03;;;;;;;28.67;15.98;;;;;;;1.98;100.00;93744.78;5136835;27;20018;-72
2022/01/05 04:47:29;;;;;;;26.58;15.27;;;;;;;2.59;100.00;93744.00;5136534;27;20100;-72
2022/01/05 04:49:54;;;;;;;29.13;16.40;;;;;;;2.82;100.00;93743.31;5136807;27;20019;-72
2022/01/05 04:52:20;;;;;;;27.38;15.80;;;;;;;2.82;100.00;93754.03;5136409;27;20023;-72
2022/01/05 04:54:46;;;;;;;35.67;16.38;;;;;;;2.75;100.00;93749.00;5136324;27;20488;-72
2022/01/05 04:57:14;;;;;;;33.47;16.30;;;;;;;2.95;100.00;93750.41;5136138;27;20067;-72
2022/01/05 04:59:39;;;;;;;25.63;15.85;;;;;;;3.09;100.00;93749.72;5135696;27;20019;-72
2022/01/05 05:02:05;;;;;;;28.02;14.88;;;;;;;2.97;100.00;93751.44;5136136;27;20029;-72
2022/01/05 05:04:30;;;;;;;29.90;14.05;;;;;;;2.59;100.00;93744.75;5136239;27;20375;-72
2022/01/05 05:06:56;;;;;;;32.38;15.25;;;;;;;2.59;100.00;93766.19;5136700;27;20054;-72
2022/01/05 05:09:21;;;;;;;29.67;15.20;;;;;;;2.82;100.00;93777.41;5135109;27;20483;-72
2022/01/05 05:11:47;;;;;;;27.10;15.90;;;;;;;2.73;100.00;93780.13;5136058;27;20372;-72
2022/01/05 05:14:12;;;;;;;32.47;15.68;;;;;;;2.80;100.00;93787.84;5135936;27;20065;-72
2022/01/05 05:16:38;;;;;;;25.23;15.20;;;;;;;2.79;100.00;93781.72;5135967;27;20026;-72
2022/01/05 05:19:04;;;;;;;37.50;17.35;;;;;;;2.88;100.00;93773.66;5136414;27;20142;-72
2022/01/05 05:21:29;;;;;;;44.50;18.45;;;;;;;1.73;100.00;93772.59;5136081;27;20043;-72
2022/01/05 05:23:55;;;;;;;30.40;15.07;;;;;;;2.27;100.00;93770.31;5135822;27;20015;-72
2022/01/05 05:26:20;;;;;;;34.00;16.55;;;;;;;2.51;100.00;93779.16;5135754;27;20046;-72
2022/01/05 05:28:46;;;;;;;28.65;15.20;;;;;;;2.74;100.00;93793.09;5135802;27;20474;-72
2022/01/05 05:31:11;;;;;;;27.55;14.57;;;;;;;2.82;100.00;93791.56;5135613;27;20027;-72
2022/01/05 05:33:36;;;;;;;29.85;14.07;;;;;;;2.61;100.00;93787.91;5135652;27;20030;-71
2022/01/05 05:36:02;;;;;;;30.13;15.65;;;;;;;2.69;100.00;93794.44;5135654;27;20126;-72
2022/01/05 05:38:28;;;;;;;32.58;16.45;;;;;;;2.75;100.00;93791.88;5135616;27;20107;-72
2022/01/05 05:40:54;;;;;;;38.15;17.58;;;;;;;2.91;100.00;93798.09;5134424;27;20463;-72
2022/01/05 05:43:20;;;;;;;34.60;16.75;;;;;;;2.89;100.00;93785.13;5135728;27;20469;-72
2022/01/05 05:45:45;;;;;;;36.13;16.70;;;;;;;2.79;100.00;93795.13;5135410;27;20428;-72
2022/01/05 05:48:11;;;;;;;28.10;15.32;;;;;;;2.35;100.00;93790.22;5135616;27;20375;-71
2022/01/05 05:50:36;;;;;;;30.92;15.55;;;;;;;2.43;100.00;93786.03;5134181;27;20019;-71
2022/01/05 05:53:02;;;;;;;31.70;15.82;;;;;;;2.06;100.00;93794.13;5135038;27;20023;-71
2022/01/05 05:55:28;;;;;;;35.83;16.38;;;;;;;2.60;100.00;93791.03;5135507;27;20042;-71
2022/01/05 05:57:53;;;;;;;29.20;15.77;;;;;;;2.51;100.00;93795.25;5135007;27;20532;-72
2022/01/05 06:00:19;;;;;;;30.60;15.10;;;;;;;2.53;100.00;93795.50;5135072;27;20019;-71
2022/01/05 06:02:45;;;;;;;31.38;15.63;;;;;;;2.96;100.00;93789.41;5135359;27;20170;-71
2022/01/05 06:05:11;;;;;;;34.05;17.42;;;;;;;2.55;100.00;93795.09;5133860;27;20065;-71
2022/01/05 06:07:36;;;;;;;31.45;16.10;;;;;;;2.65;100.00;93791.16;5135152;27;20035;-71
2022/01/05 06:10:02;;;;;;;33.20;16.02;;;;;;;2.49;100.00;93792.25;5134822;27;20030;-71
2022/01/05 06:12:28;;;;;;;31.92;16.55;;;;;;;2.30;100.00;93790.81;5134672;27;20027;-71
2022/01/05 06:14:54;;;;;;;37.28;18.85;;;;;;;2.54;100.00;93799.69;5134680;27;20405;-71
2022/01/05 06:17:20;;;;;;;41.00;20.88;;;;;;;2.38;100.00;93785.91;5134649;27;20459;-71
2022/01/05 06:19:45;;;;;;;50.60;23.92;;;;;;;2.31;100.00;93792.31;5134710;27;20424;-71
2022/01/05 06:22:11;;;;;;;44.45;24.20;;;;;;;2.51;100.00;93800.59;5134615;27;20025;-71
2022/01/05 06:24:39;;;;;;;45.78;23.77;;;;;;;2.45;100.00;93801.66;5134656;27;20471;-72
2022/01/05 06:27:05;;;;;;;48.35;25.95;;;;;;;2.80;100.00;93810.03;5133385;27;20027;-72
2022/01/05 06:29:30;;;;;;;50.30;24.42;;;;;;;2.67;100.00;93814.81;5134890;27;20022;-72
2022/01/05 06:31:56;;;;;;;55.38;29.38;;;;;;;3.04;100.00;93820.81;5133526;27;20030;-71
2022/01/05 06:34:21;;;;;;;60.30;27.75;;;;;;;3.18;99.76;93822.06;5133393;27;20023;-72
2022/01/05 06:36:47;;;;;;;51.25;26.45;;;;;;;3.35;99.16;93802.91;5134679;27;20026;-71
2022/01/05 06:39:12;;;;;;;47.65;23.25;;;;;;;3.94;94.41;93806.97;5134546;27;20490;-71
2022/01/05 06:41:38;;;;;;;53.30;20.88;;;;;;;4.31;94.83;93806.66;5134125;27;20029;-72
2022/01/05 06:44:04;;;;;;;43.60;20.95;;;;;;;4.16;92.84;93818.16;5134077;27;20030;-72
2022/01/05 06:46:29;;;;;;;41.25;20.83;;;;;;;4.28;90.25;93821.03;5134501;27;20031;-72
2022/01/05 06:48:55;;;;;;;37.70;20.55;;;;;;;4.35;90.81;93816.03;5134625;27;20023;-72
2022/01/05 06:51:20;;;;;;;39.65;21.70;;;;;;;4.45;89.82;93824.75;5133162;27;20019;-72
2022/01/05 06:53:46;;;;;;;47.80;24.10;;;;;;;4.17;90.39;93816.19;5134433;27;20102;-72
2022/01/05 06:56:11;;;;;;;40.75;21.63;;;;;;;4.03;92.52;93814.97;5134097;27;20058;-72
2022/01/05 06:58:37;;;;;;;46.97;25.15;;;;;;;3.99;93.92;93803.66;5134390;27;20026;-73
2022/01/05 07:01:02;;;;;;;49.10;25.38;;;;;;;4.38;90.85;93814.38;5134095;27;20047;-72
2022/01/05 07:03:27;;;;;;;43.83;23.35;;;;;;;4.36;91.07;93808.72;5134002;27;20015;-73
2022/01/05 07:05:53;;;;;;;47.92;24.30;;;;;;;4.67;88.91;93816.31;5133067;27;20023;-72
2022/01/05 07:08:19;;;;;;;48.88;24.65;;;;;;;4.74;88.87;93815.19;5134250;27;20038;-72
2022/01/05 07:10:45;;;;;;;43.45;22.95;;;;;;;4.95;86.67;93820.63;5134055;27;20107;-72
2022/01/05 07:13:10;;;;;;;43.88;25.25;;;;;;;4.90;86.28;93819.34;5134182;27;20027;-73
2022/01/05 07:15:36;;;;;;;47.28;23.90;;;;;;;5.42;85.87;93819.59;5133838;27;20079;-72
2022/01/05 07:18:01;;;;;;;44.83;24.73;;;;;;;5.55;84.31;93826.63;5134026;27;20030;-72
2022/01/05 07:20:27;;;;;;;41.78;23.50;;;;;;;5.86;81.81;93815.25;5132957;27;20030;-73
2022/01/05 07:22:52;;;;;;;40.05;22.40;;;;;;;5.91;81.83;93822.63;5134142;27;20094;-72
2022/01/05 07:25:18;;;;;;;43.83;22.58;;;;;;;6.05;80.88;93814.97;5138563;27;20447;-72
2022/01/05 07:27:43;;;;;;;44.53;23.27;;;;;;;6.62;78.75;93831.72;5138408;27;20147;-73
2022/01/05 07:30:10;;;;;;;46.65;23.17;;;;;;;6.81;78.36;93824.03;5138384;27;20034;-72
2022/01/05 07:32:36;;;;;;;39.05;21.67;;;;;;;6.76;78.29;93847.03;5138049;27;20023;-71
2022/01/05 07:35:03;;;;;;;47.50;23.05;;;;;;;7.20;76.14;93829.72;5137852;27;20373;-71
2022/01/05 07:37:28;;;;;;;36.13;19.65;;;;;;;7.56;73.88;93840.25;5136867;27;20375;-72
2022/01/05 07:39:54;;;;;;;35.00;18.67;;;;;;;7.86;71.66;93839.91;5138119;27;20019;-72
2022/01/05 07:42:19;;;;;;;35.92;19.88;;;;;;;7.71;72.76;93834.66;5138059;27;20027;-71
2022/01/05 07:44:45;;;;;;;42.60;24.50;;;;;;;8.20;71.23;93832.66;5138100;27;20046;-70
2022/01/05 07:47:11;;;;;;;52.30;22.30;;;;;;;8.51;69.06;93835.69;5137787;27;20103;-71
2022/01/05 07:49:37;;;;;;;46.78;20.45;;;;;;;8.50;69.65;93843.06;5138015;27;20046;-71
2022/01/05 07:52:04;;;;;;;37.13;20.25;;;;;;;8.79;69.42;93836.47;5136656;27;20051;-70
2022/01/05 07:54:30;;;;;;;37.70;18.92;;;;;;;9.19;67.72;93844.59;5137583;27;20037;-70
2022/01/05 07:56:55;;;;;;;34.75;18.00;;;;;;;9.06;66.38;93850.50;5136487;27;20122;-67
2022/01/05 07:59:21;;;;;;;30.33;18.38;;;;;;;9.47;64.46;93835.69;5137411;27;20018;-68
2022/01/05 08:01:46;;;;;;;39.33;20.85;;;;;;;9.99;62.84;93845.16;5137527;27;20413;-70
2022/01/05 08:04:12;;;;;;;34.97;18.88;;;;;;;9.79;62.95;93840.81;5136494;27;20046;-70
2022/01/05 08:06:37;;;;;;;32.92;19.33;;;;;;;10.10;61.16;93855.22;5137744;27;20444;-69
2022/01/05 08:09:03;;;;;;;41.03;20.08;;;;;;;10.36;60.86;93849.50;5137599;27;20088;-69
2022/01/05 08:11:28;;;;;;;30.55;18.23;;;;;;;10.83;58.49;93856.84;5137507;27;20034;-69
2022/01/05 08:13:54;;;;;;;35.97;18.83;;;;;;;10.67;58.88;93858.44;5137166;27;20048;-68
2022/01/05 08:16:19;;;;;;;43.80;20.25;;;;;;;11.23;57.42;93860.00;5137488;27;20490;-69
2022/01/05 08:18:45;;;;;;;31.08;18.27;;;;;;;11.53;56.19;93864.69;5137646;27;20023;-69
2022/01/05 08:21:11;;;;;;;31.80;19.55;;;;;;;11.73;55.88;93866.22;5137405;27;20023;-69
2022/01/05 08:23:37;;;;;;;37.30;19.45;;;;;;;12.09;54.07;93857.97;5137125;27;20023;-69
2022/01/05 08:26:04;;;;;;;36.22;18.58;;;;;;;12.56;52.96;93854.19;5136928;27;20019;-69
2022/01/05 08:28:31;;;;;;;34.17;19.08;;;;;;;12.40;52.58;93855.13;5137727;27;20034;-69
2022/01/05 08:30:57;;;;;;;40.17;19.40;;;;;;;12.65;52.09;93844.91;5136909;27;20027;-69
2022/01/05 08:33:23;;;;;;;37.55;19.20;;;;;;;13.58;49.63;93847.22;5136663;27;20490;-69
2022/01/05 08:35:48;;;;;;;31.27;18.65;;;;;;;13.51;48.76;93839.63;5135348;27;20494;-69
2022/01/05 08:38:15;;;;;;;29.20;17.67;;;;;;;13.30;48.80;93840.22;5136688;27;20088;-69
2022/01/05 08:40:41;;;;;;;26.48;14.75;;;;;;;13.85;47.15;93852.69;5136722;27;20019;-69
2022/01/05 08:43:10;;;;;;;21.60;14.45;;;;;;;14.62;45.06;93850.91;5137218;27;20025;-69
2022/01/05 08:45:36;;;;;;;35.53;15.02;;;;;;;14.35;44.58;93859.16;5137177;27;20023;-69
2022/01/05 08:48:02;;;;;;;28.42;14.40;;;;;;;12.28;50.25;93830.78;5136849;27;20110;-68
2022/01/05 08:50:32;;;;;;;27.10;14.63;;;;;;;13.02;48.10;93854.28;5136870;27;20031;-69
2022/01/05 08:52:58;;;;;;;27.38;13.70;;;;;;;13.74;46.66;93842.72;5136414;27;20030;-70
2022/01/05 08:55:29;;;;;;;29.48;15.18;;;;;;;14.97;43.73;93848.94;5136734;27;20031;-68
2022/01/05 08:57:55;;;;;;;23.40;14.85;;;;;;;15.06;43.59;93844.28;5136270;27;20074;-68
2022/01/05 09:00:21;;;;;;;21.70;13.82;;;;;;;15.18;42.48;93840.75;5136021;27;20467;-69
2022/01/05 09:02:47;;;;;;;25.85;14.55;;;;;;;15.58;41.22;93834.31;5136117;27;20047;-72
2022/01/05 09:05:13;;;;;;;35.15;15.55;;;;;;;16.07;40.60;93845.78;5136038;27;20026;-68
2022/01/05 09:07:39;;;;;;;30.75;15.45;;;;;;;16.79;39.06;93838.78;5135890;27;20042;-68
2022/01/05 09:10:05;;;;;;;26.77;15.82;;;;;;;15.75;40.86;93838.63;5136095;27;20367;-69
2022/01/05 09:12:32;;;;;;;32.28;16.02;;;;;;;16.42;39.80;93824.44;5136335;27;20043;-69
2022/01/05 09:14:58;;;;;;;27.10;15.80;;;;;;;16.25;39.49;93824.91;5136241;27;20106;-69
2022/01/05 09:17:25;;;;;;;24.77;15.50;;;;;;;16.34;38.67;93841.53;5136396;27;20042;-68
2022/01/05 09:19:51;;;;;;;27.20;15.07;;;;;;;15.61;40.61;93825.06;5135857;27;20019;-69
2022/01/05 09:22:17;;;;;;;32.03;15.23;;;;;;;15.23;41.77;93819.28;5135959;27;20026;-69
2022/01/05 09:24:43;;;;;;;26.35;15.00;;;;;;;15.89;40.66;93804.47;5135855;27;20019;-69
2022/01/05 09:27:08;;;;;;;20.80;13.85;;;;;;;16.08;39.89;93808.97;5135974;27;20062;-69
2022/01/05 09:29:34;;;;;;;22.23;13.43;;;;;;;14.52;42.83;93800.78;5135731;27;20019;-69
2022/01/05 09:32:04;;;;;;;21.73;13.55;;;;;;;14.30;43.48;93789.06;5135981;27;20447;-69
2022/01/05 09:34:33;;;;;;;24.83;12.27;;;;;;;13.14;45.82;93790.22;5135444;27;20440;-69
2022/01/05 09:37:05;;;;;;;18.83;12.13;;;;;;;14.52;42.99;93784.41;5134530;27;20023;-69
2022/01/05 09:42:14;;;;;;;24.17;10.88;;;;;;;15.83;41.02;93784.75;5135835;27;20061;-70
2022/01/05 09:44:46;;;;;;;20.15;11.82;;;;;;;15.62;40.68;93779.31;5135477;27;20015;-70
2022/01/05 09:47:11;;;;;;;23.33;10.93;;;;;;;16.30;39.05;93780.94;5134881;27;20092;-70
2022/01/05 09:49:39;;;;;;;20.95;10.60;;;;;;;14.72;43.12;93768.59;5135484;27;20019;-72
2022/01/05 09:52:14;;;;;;;18.35;11.18;;;;;;;15.29;45.87;93776.16;5135151;27;20455;-72
2022/01/05 09:54:43;;;;;;;19.98;11.15;;;;;;;14.77;46.88;93770.47;5135144;27;20038;-73
2022/01/05 09:57:10;;;;;;;26.08;12.13;;;;;;;15.80;49.23;93763.94;5135058;27;20043;-73
2022/01/05 09:59:36;;;;;;;16.55;11.02;;;;;;;16.97;38.22;93769.25;5135570;27;20019;-70
2022/01/05 10:02:05;;;;;;;39.13;12.20;;;;;;;16.83;38.72;93767.94;5134979;27;20042;-70
2022/01/05 10:04:30;;;;;;;21.05;12.35;;;;;;;15.30;41.13;93761.25;5133912;27;20030;-70
2022/01/05 10:06:56;;;;;;;17.55;11.95;;;;;;;15.52;40.81;93759.94;5134781;27;20102;-70
2022/01/05 10:09:22;;;;;;;20.00;10.55;;;;;;;14.52;42.82;93754.38;5134843;27;20026;-69
2022/01/05 10:11:48;;;;;;;19.27;10.70;;;;;;;13.41;45.23;93737.75;5135293;27;20023;-69
2022/01/05 10:14:14;;;;;;;17.00;9.55;;;;;;;13.70;45.21;93741.41;5133674;27;20034;-69
2022/01/05 10:16:40;;;;;;;16.08;10.35;;;;;;;15.82;40.65;93750.47;5134601;27;20034;-72
2022/01/05 10:19:08;;;;;;;20.25;9.48;;;;;;;14.29;43.59;93735.75;5134564;27;20034;-71
2022/01/05 10:21:39;;;;;;;23.02;9.75;;;;;;;14.87;42.25;93730.47;5135247;27;20436;-70
2022/01/05 10:24:05;;;;;;;16.00;9.73;;;;;;;16.25;40.01;93746.25;5134946;27;20055;-69
2022/01/05 10:26:40;;;;;;;15.45;9.45;;;;;;;14.58;41.96;93722.19;5134441;27;20391;-69
2022/01/05 10:29:18;;;;;;;38.25;11.27;;;;;;;14.09;43.12;93725.53;5134451;27;20088;-69
2022/01/05 10:31:50;;;;;;;26.10;10.35;;;;;;;16.92;38.97;93723.59;5133184;27;20105;-69
2022/01/05 10:34:21;;;;;;;21.13;9.98;;;;;;;16.67;38.30;93724.06;5134545;27;20456;-69
2022/01/05 10:36:49;;;;;;;18.50;10.10;;;;;;;17.22;37.32;93713.91;5133291;27;20539;-68
2022/01/05 10:39:18;;;;;;;23.13;9.60;;;;;;;16.54;37.33;93694.13;5134398;27;20360;-69
2022/01/05 10:41:45;;;;;;;16.70;8.63;;;;;;;14.63;40.94;93696.81;5134077;27;20087;-69
2022/01/05 10:44:15;;;;;;;14.98;8.02;;;;;;;15.14;40.51;93698.25;5134740;27;20106;-69
2022/01/05 10:46:47;;;;;;;19.38;10.60;;;;;;;15.33;39.80;93695.28;5134229;27;20055;-70
2022/01/05 10:49:33;;;;;;;21.58;9.18;;;;;;;14.53;42.03;93679.38;5134498;27;20019;-70
2022/01/05 10:52:02;;;;;;;16.73;9.20;;;;;;;13.57;44.94;93676.75;5134301;27;20440;-70
2022/01/05 10:54:30;;;;;;;23.05;10.45;;;;;;;13.81;43.66;93672.28;5133928;27;20034;-69
2022/01/05 10:57:08;;;;;;;16.90;8.63;;;;;;;14.12;43.60;93678.09;5133559;27;20075;-70
2022/01/05 10:59:39;;;;;;;15.60;8.38;;;;;;;13.60;44.59;93664.78;5133260;27;20038;-69
2022/01/05 11:02:24;;;;;;;15.63;8.35;;;;;;;12.83;46.79;93666.47;5133835;27;20471;-69
2022/01/05 11:04:51;;;;;;;18.35;8.00;;;;;;;12.63;47.23;93665.06;5133886;27;20072;-69
2022/01/05 11:07:26;;;;;;;14.68;8.48;;;;;;;12.89;47.33;93660.91;5133809;27;20035;-69
2022/01/05 11:10:14;;;;;;;58.38;9.48;;;;;;;12.33;48.03;93661.31;5132815;27;20050;-69
2022/01/05 11:12:41;;;;;;;14.38;7.70;;;;;;;12.29;48.68;93674.47;5132917;27;20114;-69
2022/01/05 11:15:28;;;;;;;13.65;7.40;;;;;;;11.62;49.97;93663.25;5133893;27;20026;-70
2022/01/05 11:18:08;;;;;;;15.73;7.25;;;;;;;11.65;51.01;93643.22;5134382;27;20532;-70
2022/01/05 11:20:35;;;;;;;14.55;7.38;;;;;;;11.36;51.00;93649.50;5133835;27;20019;-70